メインページ
METAR-TAF:

METAR-TAF

空港 :

アントファガスタ, チリ

セロ・モレノ国際空港

緯度: 23-26S, 経度: 070-26W, 海抜: 135m

現時点の気象観測

当レポートは53分前の01:00(UTC)に作成
北/北東の風 3kt
気温 15°C
湿度 72%
気圧 1015 hPa
視程10km以上
1,500メートル以下は雲なし、積乱雲なし

METAR: SCFA 260100Z 02003KT CAVOK 15/10 Q1015 NOSIG

時間: 21:53 (01:53 UTC)

予報

当レポートは3時間30分前の22:23(UTC)に作成
予報は26日の 00時(UTC)から 26日の 24時(UTC)まで有効
の風 4kt
視程10km以上
高度2300ftの雲は散在している
26日の 01時(UTC)から 26日の 03時(UTC)まで徐々に
北西の風 5kt
26日の 06時(UTC)から 26日の 08時(UTC)まで徐々に
の風 10kt
高度2700ftの曇り
26日の 17時(UTC)から 26日の 18時(UTC)まで徐々に
南西の風 10kt
高度3000ftの雲は散在している

TAF: SCFA 252223Z 2600/2624 19004KT 9999 SCT023 TN14/2606Z TX20/2617Z BECMG 2601/2603 32005KT BECMG 2606/2608 36010KT OVC027 BECMG 2617/2618 22010KT SCT030

4,000以上の空港の気象観測と天気予報(METAR報とTAF報)

利用可能な観測所は地図上に黄色い丸と赤い丸で示す。

丸の上にカーソルを重ねると観測所名を参照できる。

次にクリックすると気象観測と天気予報を参照できる。

マップの切り替え:黒色「×」印の緑ボタンをクリックして拡大、「-」印の緑ボタンをクリックして縮小、緑色の三角印をクリックして隣りの地図に切り替え


METAR-TAF: